Startpagina
METAR-TAF:

METAR-TAF

Vliegvelden :

Aeroporto Internacional Hercílio Luz

Florianópolis, Santa Catarina, Brazilië

breedte: 27-40S, lengte: 048-33W, hoogte: 5 m

Actueel weer

Dit bericht is 42 minuten geleden gemaakt, om 05:00 UTC
Wind 8 kt uit het noordnoordoosten
Temperatuur 19°C
Vochtigheid 73%
Druk 1017 hPa
Zicht 10 km of meer
Gebroken wolken op 3300 ft

METAR: SBFL 220500Z 03008KT 9999 BKN033 19/14 Q1017

Tijdstip: 03:42 (05:42 UTC)

Verwachting

Dit bericht is 2 uur en het 42 minuten geleden gemaakt, om 03:00 UTC
Verwachting geldig van 22 om 06 UTC tot 23 om 06 UTC
Wind 5 kt uit het noorden
Zicht 10 km of meer
Gebroken wolken op 4000 ft
Wijzigt naar
van 22 om 10 UTC tot 22 om 12 UTC
Wind 10 kt uit het noorden
Verspreide wolken op 4500 ft
Wijzigt naar
van 22 om 22 UTC tot 22 om 24 UTC
Wind 6 kt uit het noorden
Verspreide wolken op 3000 ft

TAF: SBFL 220300Z 2206/2306 36005KT 9999 BKN040 TN17/2207Z TX24/2215Z BECMG 2210/2212 36010KT SCT045 BECMG 2222/2224 36006KT SCT030 RMK PER

Waarnemingen en weersverwachtingen van meer dan 4000 vliegvelden (METAR en TAF).

De beschikbare stations zijn de gele en rode punten op de kaart.

Ga met uw muis naar het station om de naam te zien.

Klik dan om waarnemingen en weersverwachtingen te zien.

kaart wijzigen: klik op de groene knoppen met een zwart kruis om in te zoomen, op de groene knop met een streepje om uit te zoomen of op de groene pijlen voor aangrenzende kaarten.


METAR-TAF: